Newtown, Connecticut
Current Conditions -  °F | °C
As of 10:53 PM on Tuesday 21 Oct 2014 (Local Time) from KDXR Reporting Station
Broken Clouds Broken Clouds  
Wind Chill: 54°   Ceiling: 7500
Heat Index: 54°   Visibility: 10mi
Dew Point: 30°   Wind: 3mph
Humidity: 40%   Direction: 40°NE
Pressure: 29.95"   Gusts: NA
Location:  41.41°N, 73.3°W
Report Text: KDXR 220253Z AUTO 04003KT 10SM SCT027 BKN075 12/M01 A2995 RMK AO2 SLP140 P0001 60001 T01221011 51014
Loading
Personal Weather Stations






























Interactive Weather Map
Tropical Storm Tracking
New forecast layout! Learn more

10-Day Weather Forecast

Advertisements
Track Severe Weather on mobile